Time;durP1;ratioP1;P1;durP2;ratioP2;P2;SDS_P1;SDS_P2;PMS_P1;PMS_P2;Temp;Humidity;BMP_temperature;BMP_pressure;BME280_temperature;BME280_humidity;BME280_pressure;Samples;Min_cycle;Max_cycle;Signal;HPM_P1;HPM_P2
2022/09/01 00:00:02;;;;;;;11.10;7.72;;;24.80;74.10;;;;;;1887032;75;21015;-61
2022/09/01 00:02:34;;;;;;;11.80;7.40;;;24.80;74.60;;;;;;1887048;75;21039;-61
2022/09/01 00:05:03;;;;;;;14.45;7.75;;;24.80;75.00;;;;;;1887028;75;21007;-62
2022/09/01 00:07:34;;;;;;;9.98;7.60;;;24.80;74.90;;;;;;1887106;76;21031;-61
2022/09/01 00:10:05;;;;;;;9.40;8.48;;;24.80;74.60;;;;;;1887173;76;21101;-62
2022/09/01 00:12:36;;;;;;;12.78;10.03;;;24.90;74.60;;;;;;1887169;76;21101;-61
2022/09/01 00:15:08;;;;;;;13.50;9.30;;;24.80;74.40;;;;;;1887241;76;21019;-61
2022/09/01 00:17:37;;;;;;;13.25;9.53;;;24.70;74.50;;;;;;1887071;76;21124;-62
2022/09/01 00:20:07;;;;;;;14.23;8.40;;;24.60;75.00;;;;;;1887000;76;21046;-62
2022/09/01 00:22:37;;;;;;;13.32;8.85;;;24.50;75.50;;;;;;1887042;76;21168;-62
2022/09/01 00:25:07;;;;;;;16.75;10.13;;;24.40;75.60;;;;;;1887168;76;21058;-62
2022/09/01 00:27:36;;;;;;;20.52;10.53;;;24.40;75.40;;;;;;1887022;76;21082;-62
2022/09/01 00:30:06;;;;;;;15.88;9.53;;;24.30;75.30;;;;;;1887058;76;21023;-62
2022/09/01 00:32:36;;;;;;;12.58;8.53;;;24.30;75.50;;;;;;1887011;76;21116;-62
2022/09/01 00:35:07;;;;;;;10.90;8.33;;;24.30;75.80;;;;;;1889517;75;21133;-62
2022/09/01 00:37:37;;;;;;;13.22;8.85;;;24.20;76.10;;;;;;1890892;76;21046;-62
2022/09/01 00:40:07;;;;;;;14.18;8.18;;;24.20;77.00;;;;;;1890732;76;21194;-62
2022/09/01 00:42:36;;;;;;;13.05;8.38;;;24.20;76.50;;;;;;1890797;75;21050;-61
2022/09/01 00:45:07;;;;;;;14.90;9.55;;;24.20;76.60;;;;;;1890848;76;21050;-62
2022/09/01 00:47:36;;;;;;;17.57;9.18;;;24.20;76.80;;;;;;1890742;76;21026;-62
2022/09/01 00:50:07;;;;;;;12.37;9.30;;;24.10;76.80;;;;;;1890828;75;21406;-62
2022/09/01 00:52:41;;;;;;;14.40;9.45;;;24.10;76.90;;;;;;1890624;76;21070;-62
2022/09/01 00:55:16;;;;;;;8.95;8.15;;;24.00;77.20;;;;;;1886345;75;21031;-62
2022/09/01 00:57:46;;;;;;;12.88;8.25;;;23.90;77.50;;;;;;1890501;76;21489;-62
2022/09/01 01:00:19;;;;;;;15.00;8.93;;;23.80;78.40;;;;;;1890598;76;21027;-62
2022/09/01 01:02:54;;;;;;;16.50;9.45;;;23.80;78.00;;;;;;1890598;75;21090;-62
2022/09/01 01:05:20;;;;;;;9.95;8.45;;;23.80;78.10;;;;;;1889864;76;21429;-62
2022/09/01 01:07:50;;;;;;;13.13;8.75;;;23.80;78.00;;;;;;1890514;76;21007;-62
2022/09/01 01:10:21;;;;;;;17.42;9.03;;;23.70;78.20;;;;;;1890750;75;21038;-62
2022/09/01 01:12:51;;;;;;;11.38;8.38;;;23.60;78.40;;;;;;1890645;76;20999;-62
2022/09/01 01:15:21;;;;;;;13.15;8.65;;;23.60;78.80;;;;;;1890634;76;21085;-62
2022/09/01 01:17:51;;;;;;;12.73;7.95;;;23.60;79.00;;;;;;1890585;76;21031;-62
2022/09/01 01:23:35;;;;;;;11.65;8.18;;;23.70;79.00;;;;;;1890650;76;21110;-62
2022/09/01 01:26:05;;;;;;;11.93;7.92;;;23.80;78.90;;;;;;1890396;76;21133;-62
2022/09/01 01:28:37;;;;;;;20.05;9.43;;;23.80;78.80;;;;;;1890526;76;21097;-62
2022/09/01 01:31:12;;;;;;;10.43;8.55;;;23.90;78.90;;;;;;1890187;75;21168;-62
2022/09/01 01:33:53;;;;;;;15.25;8.20;;;23.80;78.70;;;;;;1890520;76;21105;-62
2022/09/01 01:36:35;;;;;;;12.23;8.08;;;23.80;78.80;;;;;;1886971;76;21600;-62
2022/09/01 01:39:15;;;;;;;8.80;7.75;;;23.80;79.00;;;;;;1886868;76;21101;-62
2022/09/01 01:41:47;;;;;;;13.93;9.48;;;23.80;79.20;;;;;;1886801;75;21536;-62
2022/09/01 01:44:21;;;;;;;16.37;9.35;;;23.80;79.10;;;;;;1886810;75;20999;-62
2022/09/01 01:46:53;;;;;;;9.15;7.80;;;23.80;79.10;;;;;;1886934;75;21015;-62
2022/09/01 01:49:26;;;;;;;16.17;9.10;;;23.80;79.10;;;;;;1886828;76;21023;-62
2022/09/01 01:51:56;;;;;;;11.75;8.35;;;23.80;78.90;;;;;;1887008;76;21446;-62
2022/09/01 01:54:33;;;;;;;17.77;9.20;;;23.80;78.80;;;;;;1886890;76;21016;-62
2022/09/01 01:57:06;;;;;;;16.82;9.78;;;23.80;78.80;;;;;;1886794;76;21031;-62
2022/09/01 01:59:39;;;;;;;14.30;10.30;;;23.90;78.70;;;;;;1886755;75;21023;-62
2022/09/01 02:02:09;;;;;;;18.90;10.68;;;23.80;78.30;;;;;;1886815;75;21023;-62
2022/09/01 02:04:39;;;;;;;12.35;9.65;;;23.70;78.30;;;;;;1886772;76;21503;-63
2022/09/01 02:07:11;;;;;;;14.28;9.25;;;23.50;78.60;;;;;;1886809;76;21027;-62
2022/09/01 02:09:45;;;;;;;13.03;8.65;;;23.40;79.10;;;;;;1886570;74;21547;-62
2022/09/01 02:12:12;;;;;;;14.03;9.45;;;23.40;79.40;;;;;;1886745;75;21090;-62
2022/09/01 02:14:42;;;;;;;16.42;9.63;;;23.40;79.40;;;;;;1886762;76;21023;-62
2022/09/01 02:17:11;;;;;;;17.50;10.03;;;23.30;79.60;;;;;;1886774;76;21140;-63
2022/09/01 02:19:41;;;;;;;12.78;9.55;;;23.30;79.70;;;;;;1887071;76;21019;-63
2022/09/01 02:22:10;;;;;;;12.63;9.33;;;23.20;79.80;;;;;;1886954;76;21086;-63
2022/09/01 02:24:45;;;;;;;19.12;9.88;;;23.10;80.20;;;;;;1886952;76;21027;-63
2022/09/01 02:27:11;;;;;;;13.03;9.50;;;23.10;80.50;;;;;;1886484;75;20996;-63
2022/09/01 02:29:41;;;;;;;14.15;9.53;;;23.10;80.40;;;;;;1887110;75;21059;-63
2022/09/01 02:32:11;;;;;;;11.45;9.10;;;23.10;80.20;;;;;;1887000;75;21097;-63
2022/09/01 02:34:41;;;;;;;10.10;8.15;;;23.00;80.50;;;;;;1887119;76;20995;-63
2022/09/01 02:37:10;;;;;;;16.70;9.25;;;23.10;80.70;;;;;;1886995;75;21063;-63
2022/09/01 02:39:39;;;;;;;11.60;8.18;;;23.20;80.90;;;;;;1886917;76;21059;-63
2022/09/01 02:42:09;;;;;;;12.53;8.70;;;23.20;80.90;;;;;;1887075;76;20996;-63
2022/09/01 02:44:39;;;;;;;13.35;8.65;;;23.20;80.80;;;;;;1886994;76;21015;-63
2022/09/01 02:47:08;;;;;;;12.73;8.30;;;23.30;80.70;;;;;;1887001;75;21031;-63
2022/09/01 02:49:41;;;;;;;10.75;8.50;;;23.30;80.70;;;;;;1886992;75;21070;-63
2022/09/01 02:52:10;;;;;;;14.70;8.75;;;23.40;80.70;;;;;;1886981;76;21077;-63
2022/09/01 02:54:39;;;;;;;11.85;9.00;;;23.50;80.60;;;;;;1887057;76;21027;-63
2022/09/01 02:57:09;;;;;;;12.15;9.70;;;23.40;80.40;;;;;;1886918;76;21093;-63
2022/09/01 02:59:40;;;;;;;15.05;9.43;;;23.50;80.30;;;;;;1886930;76;21000;-63
2022/09/01 03:02:10;;;;;;;9.78;8.10;;;23.40;80.20;;;;;;1886990;76;21121;-63
2022/09/01 03:04:39;;;;;;;13.13;8.53;;;23.50;80.30;;;;;;1886945;76;21023;-63
2022/09/01 03:07:08;;;;;;;14.80;10.45;;;23.50;80.30;;;;;;1887054;75;21035;-63
2022/09/01 03:09:40;;;;;;;18.55;11.73;;;23.50;80.20;;;;;;1887098;76;21078;-63
2022/09/01 03:12:09;;;;;;;13.98;9.73;;;23.50;80.10;;;;;;1887006;76;21027;-63
2022/09/01 03:14:38;;;;;;;14.93;10.00;;;23.50;80.00;;;;;;1887045;76;21007;-63
2022/09/01 03:17:08;;;;;;;14.60;10.30;;;23.50;80.20;;;;;;1887029;76;21066;-63
2022/09/01 03:19:40;;;;;;;19.48;9.63;;;23.60;80.30;;;;;;1887050;76;21089;-63
2022/09/01 03:22:08;;;;;;;13.00;9.00;;;23.60;80.10;;;;;;1886819;75;21595;-63
2022/09/01 03:24:38;;;;;;;18.92;11.68;;;23.60;80.30;;;;;;1887029;76;21149;-63
2022/09/01 03:27:10;;;;;;;13.45;8.80;;;23.60;80.20;;;;;;1886964;76;21148;-63
2022/09/01 03:29:57;;;;;;;20.27;10.63;;;23.70;79.90;;;;;;1882976;76;21170;-62
2022/09/01 03:32:28;;;;;;;27.40;12.05;;;23.60;80.10;;;;;;1913531;75;21092;-63
2022/09/01 03:34:58;;;;;;;20.62;11.43;;;23.60;79.90;;;;;;1913751;75;21030;-63
2022/09/01 03:37:28;;;;;;;14.05;9.73;;;23.60;79.90;;;;;;1913559;75;20982;-63
2022/09/01 03:39:58;;;;;;;18.23;10.20;;;23.60;80.00;;;;;;1913529;75;21006;-63
2022/09/01 03:42:28;;;;;;;20.85;10.58;;;23.70;80.00;;;;;;1913567;75;21068;-63
2022/09/01 03:44:58;;;;;;;13.62;10.58;;;23.70;79.70;;;;;;1913665;75;20990;-63
2022/09/01 03:47:27;;;;;;;22.65;10.18;;;23.70;79.90;;;;;;1913734;75;21072;-63
2022/09/01 03:49:58;;;;;;;18.37;10.90;;;23.70;80.00;;;;;;1913690;75;21006;-63
2022/09/01 03:52:28;;;;;;;14.68;10.30;;;23.80;79.80;;;;;;1913669;75;21072;-63
2022/09/01 03:54:59;;;;;;;18.67;11.25;;;23.80;79.80;;;;;;1913574;75;21010;-63
2022/09/01 03:57:28;;;;;;;20.97;10.80;;;23.90;79.60;;;;;;1913616;75;21006;-63
2022/09/01 03:59:58;;;;;;;17.10;10.58;;;23.90;79.50;;;;;;1913614;75;21014;-64
2022/09/01 04:02:28;;;;;;;16.05;10.78;;;24.00;79.40;;;;;;1913656;75;21518;-64
2022/09/01 04:04:57;;;;;;;15.95;10.00;;;24.10;79.20;;;;;;1913593;75;21072;-63
2022/09/01 04:07:27;;;;;;;22.70;11.25;;;24.10;79.20;;;;;;1913516;75;21094;-63
2022/09/01 04:09:57;;;;;;;19.37;13.28;;;24.20;79.20;;;;;;1913627;75;21079;-63
2022/09/01 04:12:26;;;;;;;19.90;10.93;;;24.30;79.10;;;;;;1913565;75;20994;-63
2022/09/01 04:14:56;;;;;;;17.40;11.33;;;24.40;78.90;;;;;;1913574;75;21041;-63
2022/09/01 04:20:14;;;;;;;20.88;11.40;;;24.50;78.50;;;;;;1913576;75;21088;-63
2022/09/01 04:22:46;;;;;;;20.12;9.65;;;24.60;78.30;;;;;;1913625;75;20986;-63
2022/09/01 04:25:15;;;;;;;15.30;9.00;;;24.70;78.30;;;;;;1913707;75;21119;-63
2022/09/01 04:27:46;;;;;;;16.85;10.32;;;24.70;78.30;;;;;;1913494;75;21034;-63
2022/09/01 04:30:15;;;;;;;19.35;10.48;;;24.80;78.10;;;;;;1916721;75;21096;-63
2022/09/01 04:32:46;;;;;;;13.83;9.73;;;24.90;78.00;;;;;;1916384;74;21034;-63
2022/09/01 04:35:16;;;;;;;17.73;9.18;;;25.00;78.00;;;;;;1917129;75;21006;-63
2022/09/01 04:37:46;;;;;;;18.02;10.63;;;25.00;77.70;;;;;;1916972;75;21076;-63
2022/09/01 04:40:17;;;;;;;14.47;9.73;;;25.10;77.60;;;;;;1917167;75;21018;-63
2022/09/01 04:42:48;;;;;;;14.38;10.48;;;25.10;77.50;;;;;;1917094;75;21494;-63
2022/09/01 04:45:21;;;;;;;16.65;9.05;;;25.30;77.30;;;;;;1917103;75;21014;-63
2022/09/01 04:47:48;;;;;;;19.70;10.30;;;25.40;77.30;;;;;;1916844;75;21484;-63
2022/09/01 04:50:20;;;;;;;19.20;10.13;;;25.50;77.20;;;;;;1917000;75;21098;-63
2022/09/01 04:53:10;;;;;;;13.90;9.80;;;25.60;76.90;;;;;;1916939;75;21522;-63
2022/09/01 04:55:43;;;;;;;21.82;9.33;;;25.70;76.60;;;;;;1916666;74;21059;-63
2022/09/01 04:58:16;;;;;;;14.98;8.78;;;25.70;76.30;;;;;;1917037;75;21063;-63
2022/09/01 05:00:48;;;;;;;13.03;9.03;;;25.80;75.70;;;;;;1916949;75;21006;-63
2022/09/01 05:03:22;;;;;;;14.43;8.77;;;25.90;75.30;;;;;;1917179;75;21444;-63
2022/09/01 05:05:52;;;;;;;10.88;6.83;;;25.90;74.40;;;;;;1916133;75;21108;-63
2022/09/01 05:08:23;;;;;;;10.45;7.00;;;26.00;73.60;;;;;;1917145;75;21075;-63
2022/09/01 05:10:55;;;;;;;20.50;7.92;;;26.00;72.90;;;;;;1917230;75;21038;-63
2022/09/01 05:13:31;;;;;;;15.88;9.03;;;26.10;72.50;;;;;;1915385;75;21054;-63
2022/09/01 05:16:06;;;;;;;11.40;8.73;;;26.10;72.20;;;;;;1917192;75;21486;-63
2022/09/01 05:18:35;;;;;;;12.05;9.13;;;26.10;72.80;;;;;;1917041;75;21499;-63
2022/09/01 05:21:09;;;;;;;11.55;8.55;;;26.20;72.10;;;;;;1916910;75;20990;-63
2022/09/01 05:23:42;;;;;;;;;;;26.30;72.20;;;;;;1919751;75;21002;-63
2022/09/01 05:26:16;;;;;;;13.22;10.30;;;26.40;71.60;;;;;;1917127;75;20135;-63
2022/09/01 05:28:48;;;;;;;15.18;9.23;;;26.40;71.60;;;;;;1916787;74;21018;-63
2022/09/01 05:31:18;;;;;;;21.95;9.43;;;26.50;71.30;;;;;;1913459;75;21406;-63
2022/09/01 05:33:48;;;;;;;22.32;10.18;;;26.60;70.90;;;;;;1913451;75;21010;-63
2022/09/01 05:36:20;;;;;;;22.87;9.75;;;26.60;70.80;;;;;;1913393;75;21018;-63
2022/09/01 05:38:51;;;;;;;21.40;9.73;;;26.70;70.60;;;;;;1913648;75;21033;-63
2022/09/01 05:41:23;;;;;;;14.53;10.10;;;26.70;70.40;;;;;;1913499;75;21483;-63
2022/09/01 05:43:52;;;;;;;18.37;9.83;;;26.80;70.20;;;;;;1913438;75;21021;-63
2022/09/01 05:46:25;;;;;;;14.85;9.80;;;26.90;70.30;;;;;;1913377;75;21002;-63
2022/09/01 05:48:55;;;;;;;17.27;9.48;;;26.90;70.00;;;;;;1913550;75;21002;-63
2022/09/01 05:51:27;;;;;;;20.90;10.28;;;26.90;70.10;;;;;;1913627;75;21068;-63
2022/09/01 05:54:02;;;;;;;12.55;9.85;;;27.00;69.90;;;;;;1913531;75;21014;-63
2022/09/01 05:56:30;;;;;;;18.98;9.68;;;27.00;69.80;;;;;;1912405;75;21468;-63
2022/09/01 05:59:04;;;;;;;20.97;9.65;;;27.00;69.70;;;;;;1913419;75;21013;-63
2022/09/01 06:01:39;;;;;;;21.00;12.43;;;27.10;69.60;;;;;;1871291;72;21220;-63
2022/09/01 06:04:10;;;;;;;22.93;13.30;;;27.20;69.80;;;;;;1866783;76;21119;-63
2022/09/01 06:06:45;;;;;;;19.42;12.03;;;27.30;70.20;;;;;;1866742;77;21030;-63
2022/09/01 06:09:16;;;;;;;21.80;13.88;;;27.30;70.10;;;;;;1845345;77;21022;-63
2022/09/01 06:11:47;;;;;;;24.27;12.58;;;27.40;70.00;;;;;;1866924;77;21453;-63
2022/09/01 06:14:19;;;;;;;23.57;12.80;;;27.50;69.80;;;;;;1866899;77;21033;-63
2022/09/01 06:16:49;;;;;;;19.50;11.57;;;27.50;69.60;;;;;;1866948;76;21041;-63
2022/09/01 06:19:19;;;;;;;18.35;11.85;;;27.60;69.60;;;;;;1866742;76;21033;-63
2022/09/01 06:21:50;;;;;;;22.17;12.43;;;27.70;69.50;;;;;;1866588;77;21577;-63
2022/09/01 06:24:19;;;;;;;21.80;12.60;;;27.80;69.60;;;;;;1866680;77;21103;-63
2022/09/01 06:26:48;;;;;;;16.73;12.28;;;27.90;69.90;;;;;;1866622;77;21050;-63
2022/09/01 06:29:18;;;;;;;16.25;10.58;;;27.90;69.10;;;;;;1866794;76;21013;-63
2022/09/01 06:31:51;;;;;;;18.52;11.65;;;28.00;68.90;;;;;;1866588;77;21032;-63
2022/09/01 06:34:21;;;;;;;24.67;11.70;;;28.10;68.70;;;;;;1866864;76;21037;-63
2022/09/01 06:36:52;;;;;;;25.32;12.23;;;28.10;68.90;;;;;;1866713;77;21103;-63
2022/09/01 06:39:22;;;;;;;23.90;13.15;;;28.20;68.90;;;;;;1866671;77;21089;-63
2022/09/01 06:41:53;;;;;;;20.95;11.50;;;28.20;68.70;;;;;;1866690;76;21057;-63
2022/09/01 06:44:25;;;;;;;20.52;11.12;;;28.30;68.90;;;;;;1866268;76;21077;-63
2022/09/01 06:46:56;;;;;;;19.85;12.70;;;28.40;69.20;;;;;;1866097;77;21013;-63
2022/09/01 06:49:31;;;;;;;22.37;12.55;;;28.40;69.40;;;;;;1866714;76;21021;-63
2022/09/01 06:51:57;;;;;;;21.95;11.38;;;28.40;69.40;;;;;;1866237;77;21040;-63
2022/09/01 06:54:28;;;;;;;28.85;13.05;;;28.50;69.40;;;;;;1866703;76;21552;-63
2022/09/01 06:56:59;;;;;;;29.90;13.05;;;28.50;69.50;;;;;;1866845;76;21127;-63
2022/09/01 06:59:31;;;;;;;25.00;13.55;;;28.60;69.50;;;;;;1866674;76;21114;-63
2022/09/01 07:02:02;;;;;;;23.38;13.20;;;28.70;69.50;;;;;;1889853;75;21076;-63
2022/09/01 07:04:50;;;;;;;29.40;14.90;;;28.70;69.40;;;;;;1896979;76;21510;-63
2022/09/01 07:07:21;;;;;;;24.32;13.60;;;28.80;69.50;;;;;;1897014;76;21118;-63
2022/09/01 07:10:05;;;;;;;27.15;16.77;;;28.80;69.80;;;;;;1864441;76;21056;-63
2022/09/01 07:12:45;;;;;;;27.22;14.33;;;28.90;69.70;;;;;;1895978;76;21122;-63
2022/09/01 07:15:16;;;;;;;41.58;18.62;;;28.90;69.70;;;;;;1897282;76;21065;-63
2022/09/01 07:17:53;;;;;;;39.05;21.40;;;29.00;69.60;;;;;;1897156;76;21029;-63
2022/09/01 07:20:25;;;;;;;34.18;19.02;;;29.00;69.70;;;;;;1897087;76;21080;-63
2022/09/01 07:22:56;;;;;;;24.98;13.75;;;29.10;69.80;;;;;;1897071;76;21009;-63
2022/09/01 07:25:26;;;;;;;22.73;14.63;;;29.20;69.90;;;;;;1897056;76;22225;-62
2022/09/01 07:28:09;;;;;;;27.62;12.03;;;29.20;69.80;;;;;;1896599;76;21073;-63
2022/09/01 07:30:47;;;;;;;17.40;10.43;;;29.20;69.70;;;;;;1897042;76;21099;-63
2022/09/01 07:35:56;;;;;;;20.37;10.40;;;29.10;70.40;;;;;;1803164;78;21112;-63
2022/09/01 07:38:27;;;;;;;12.68;8.55;;;29.20;70.80;;;;;;1803185;79;21044;-63
2022/09/01 07:40:56;;;;;;;15.65;8.98;;;29.20;70.60;;;;;;1803037;79;21128;-63
2022/09/01 07:43:32;;;;;;;18.65;9.33;;;29.30;70.10;;;;;;1798253;79;21076;-63
2022/09/01 07:46:18;;;;;;;16.93;11.20;;;29.40;70.20;;;;;;1707811;84;21157;-63
2022/09/01 07:48:49;;;;;;;27.70;10.13;;;29.50;70.20;;;;;;1772428;79;21036;-62
2022/09/01 07:51:21;;;;;;;16.07;10.10;;;29.60;70.20;;;;;;1803270;79;21146;-62
2022/09/01 07:53:51;;;;;;;16.85;10.75;;;29.70;69.80;;;;;;1803332;79;21146;-62
2022/09/01 07:56:22;;;;;;;23.25;12.07;;;29.80;69.40;;;;;;1803171;79;21056;-62
2022/09/01 07:58:52;;;;;;;29.30;13.05;;;29.80;69.00;;;;;;1803249;79;21060;-62
2022/09/01 08:01:24;;;;;;;30.82;12.65;;;29.90;68.50;;;;;;1803197;79;21024;-63
2022/09/01 08:04:01;;;;;;;21.17;9.50;;;30.00;68.30;;;;;;1803266;79;21057;-63
2022/09/01 08:06:30;;;;;;;19.10;8.45;;;30.00;68.10;;;;;;1803262;79;21475;-63
2022/09/01 08:09:00;;;;;;;21.52;8.98;;;30.10;67.90;;;;;;1803116;79;21162;-63
2022/09/01 08:11:31;;;;;;;13.13;9.10;;;30.20;67.90;;;;;;1802630;79;21051;-63
2022/09/01 08:14:01;;;;;;;16.75;10.38;;;30.30;67.70;;;;;;1803304;79;21052;-63
2022/09/01 08:16:31;;;;;;;22.17;8.88;;;30.30;67.70;;;;;;1803114;79;21080;-63
2022/09/01 08:19:02;;;;;;;15.75;8.90;;;30.40;67.50;;;;;;1803072;79;21134;-63
2022/09/01 08:21:34;;;;;;;13.80;8.90;;;30.40;67.40;;;;;;1801433;79;21142;-63
2022/09/01 08:24:05;;;;;;;17.05;9.93;;;30.50;67.20;;;;;;1802858;79;21083;-63
2022/09/01 08:26:36;;;;;;;21.87;10.50;;;30.50;67.10;;;;;;1803062;79;21139;-63
2022/09/01 08:29:07;;;;;;;19.25;8.70;;;30.50;67.50;;;;;;1803217;78;21052;-62
2022/09/01 08:31:38;;;;;;;21.37;9.78;;;30.60;67.50;;;;;;1802328;79;21566;-62
2022/09/01 08:34:09;;;;;;;14.98;9.88;;;30.60;67.00;;;;;;1803034;78;21060;-61
2022/09/01 08:36:39;;;;;;;23.87;9.33;;;30.70;67.00;;;;;;1839570;78;21590;-63
2022/09/01 08:39:08;;;;;;;13.80;8.35;;;30.70;66.90;;;;;;1839511;78;21053;-63
2022/09/01 08:41:49;;;;;;;21.65;8.40;;;30.80;66.10;;;;;;1806822;78;21116;-62
2022/09/01 08:44:30;;;;;;;19.40;9.63;;;30.80;66.20;;;;;;1789313;80;21051;-62
2022/09/01 08:47:02;;;;;;;41.15;11.33;;;30.90;66.20;;;;;;1759384;81;21669;-62
2022/09/01 08:49:35;;;;;;;14.58;7.97;;;31.00;66.10;;;;;;1789267;80;21058;-63
2022/09/01 08:52:11;;;;;;;20.27;8.50;;;31.10;65.70;;;;;;1785318;79;21513;-63
2022/09/01 08:54:48;;;;;;;19.82;13.05;;;31.10;65.50;;;;;;1786578;80;21149;-62
2022/09/01 08:57:23;;;;;;;14.93;11.45;;;31.20;65.40;;;;;;1759306;81;21037;-62
2022/09/01 08:59:57;;;;;;;14.00;8.55;;;31.20;65.30;;;;;;1771507;80;21088;-63
2022/09/01 09:02:55;;;;;;;18.15;9.03;;;31.30;64.90;;;;;;1789268;80;21132;-62
2022/09/01 09:05:27;;;;;;;20.48;8.30;;;31.30;65.30;;;;;;1777828;80;21155;-62
2022/09/01 09:08:16;;;;;;;18.40;7.80;;;31.30;64.60;;;;;;1789433;79;21575;-63
2022/09/01 09:11:03;;;;;;;18.27;9.18;;;31.40;64.90;;;;;;1789420;80;21156;-62
2022/09/01 09:13:38;;;;;;;14.95;8.43;;;31.50;64.80;;;;;;1788832;80;21082;-62
2022/09/01 09:16:16;;;;;;;15.05;8.25;;;31.50;64.50;;;;;;1788817;80;21128;-62
2022/09/01 09:18:50;;;;;;;11.00;8.65;;;31.60;64.30;;;;;;1789350;80;21070;-62
2022/09/01 09:21:20;;;;;;;;;;;31.60;64.20;;;;;;1791981;80;21338;-62
2022/09/01 09:23:52;;;;;;;11.10;7.00;;;31.70;64.40;;;;;;1758605;81;20379;-62
2022/09/01 09:26:21;;;;;;;11.38;7.05;;;31.70;63.60;;;;;;1788162;79;21547;-63
2022/09/01 09:28:53;;;;;;;11.43;7.37;;;31.80;63.10;;;;;;1788732;80;21120;-61
2022/09/01 09:31:41;;;;;;;15.83;7.80;;;31.80;63.20;;;;;;1788829;80;21108;-61
2022/09/01 09:34:09;;;;;;;14.70;7.10;;;31.90;63.10;;;;;;1787829;80;21128;-58
2022/09/01 09:36:40;;;;;;;12.10;7.97;;;32.00;62.90;;;;;;1787987;79;21558;-58
2022/09/01 09:39:12;;;;;;;12.45;7.87;;;32.10;62.20;;;;;;1789152;80;21093;-58
2022/09/01 09:41:43;;;;;;;11.40;7.22;;;32.10;62.10;;;;;;1788743;80;21085;-58
2022/09/01 09:44:21;;;;;;;14.13;7.55;;;32.10;61.50;;;;;;1789170;79;21100;-59
2022/09/01 09:46:51;;;;;;;17.37;8.58;;;32.20;61.10;;;;;;1788700;80;21124;-59
2022/09/01 09:49:32;;;;;;;11.75;6.92;;;32.30;61.00;;;;;;1788815;80;21084;-59
2022/09/01 09:52:10;;;;;;;14.30;6.72;;;32.30;60.60;;;;;;1789301;80;21061;-61
2022/09/01 09:54:42;;;;;;;12.47;6.15;;;32.40;60.10;;;;;;1789119;80;21377;-61
2022/09/01 09:57:14;;;;;;;10.82;6.08;;;32.40;59.80;;;;;;1822299;77;21048;-62
2022/09/01 09:59:49;;;;;;;10.60;6.33;;;32.40;59.20;;;;;;1874179;76;21012;-63
2022/09/01 10:02:28;;;;;;;13.75;6.28;;;32.40;59.30;;;;;;1874170;76;21153;-62
2022/09/01 10:04:58;;;;;;;7.83;5.95;;;32.40;58.90;;;;;;1873935;76;21121;-61
2022/09/01 10:07:37;;;;;;;9.23;6.17;;;32.40;59.20;;;;;;1874064;76;21036;-59
2022/09/01 10:10:09;;;;;;;17.37;6.55;;;32.40;58.40;;;;;;1873857;76;21047;-59
2022/09/01 10:12:39;;;;;;;7.03;6.20;;;32.50;58.10;;;;;;1870289;76;21514;-60
2022/09/01 10:15:10;;;;;;;9.05;5.62;;;32.60;58.10;;;;;;1874148;76;21094;-64
2022/09/01 10:17:42;;;;;;;11.45;6.35;;;32.70;57.50;;;;;;1873872;76;21084;-62
2022/09/01 10:20:15;;;;;;;12.05;5.45;;;32.80;57.10;;;;;;1874231;76;21165;-66
2022/09/01 10:22:45;;;;;;;10.03;5.72;;;32.70;56.80;;;;;;1874373;76;21145;-67
2022/09/01 10:25:23;;;;;;;11.15;6.70;;;32.70;56.40;;;;;;1873699;76;21020;-67
2022/09/01 10:27:56;;;;;;;11.05;5.75;;;32.70;56.50;;;;;;1874034;76;21095;-66
2022/09/01 10:30:25;;;;;;;15.60;5.65;;;32.80;56.10;;;;;;1874412;76;21036;-66
2022/09/01 10:32:59;;;;;;;11.22;7.00;;;32.80;55.90;;;;;;1873833;76;21110;-62
2022/09/01 10:35:38;;;;;;;20.88;12.35;;;32.70;55.40;;;;;;1873858;76;21120;-64
2022/09/01 10:38:10;;;;;;;9.75;6.72;;;32.70;55.60;;;;;;1873983;76;21078;-68
2022/09/01 10:40:47;;;;;;;13.03;8.50;;;32.70;56.20;;;;;;1873108;76;21044;-67
2022/09/01 10:43:42;;;;;;;29.40;26.45;;;32.80;57.10;;;;;;1873897;76;21103;-66
2022/09/01 10:46:25;;;;;;;15.32;6.75;;;32.80;57.00;;;;;;1873894;76;21111;-62
2022/09/01 10:48:56;;;;;;;12.35;7.33;;;32.80;56.90;;;;;;1873730;76;21040;-64
2022/09/01 10:51:28;;;;;;;18.60;8.00;;;32.80;57.10;;;;;;1873937;76;21553;-61
2022/09/01 10:53:59;;;;;;;12.15;7.45;;;32.90;57.00;;;;;;1871657;76;21158;-61
2022/09/01 10:56:40;;;;;;;14.25;8.30;;;33.00;56.10;;;;;;1873983;76;21056;-61
2022/09/01 10:59:12;;;;;;;9.30;7.35;;;33.00;56.10;;;;;;1874054;76;21502;-59
2022/09/01 11:01:44;;;;;;;11.73;8.05;;;33.00;56.70;;;;;;1873923;76;21169;-60
2022/09/01 11:04:25;;;;;;;15.10;7.33;;;33.00;56.10;;;;;;1873943;76;21498;-62
2022/09/01 11:07:05;;;;;;;19.60;7.92;;;33.00;55.90;;;;;;1869298;76;21107;-59
2022/09/01 11:09:39;;;;;;;13.83;8.00;;;33.00;55.90;;;;;;1873700;76;21534;-61
2022/09/01 11:12:29;;;;;;;14.10;7.55;;;33.10;55.90;;;;;;1873914;76;21094;-65
2022/09/01 11:15:01;;;;;;;13.78;8.35;;;33.10;55.90;;;;;;1873904;76;21110;-64
2022/09/01 11:17:51;;;;;;;16.23;9.05;;;33.20;55.40;;;;;;1873724;76;21115;-62
2022/09/01 11:20:29;;;;;;;13.75;8.13;;;33.20;55.40;;;;;;1837843;76;21040;-66
2022/09/01 11:23:07;;;;;;;12.78;8.13;;;33.20;55.60;;;;;;1874024;76;21079;-60
2022/09/01 11:25:47;;;;;;;12.20;9.28;;;33.30;55.30;;;;;;1873606;76;21084;-64
2022/09/01 11:28:25;;;;;;;16.87;8.95;;;33.30;54.90;;;;;;1873694;76;21099;-61
2022/09/01 11:31:03;;;;;;;11.22;7.90;;;33.30;54.90;;;;;;1873986;76;21008;-63
2022/09/01 11:33:45;;;;;;;14.75;8.43;;;33.30;54.70;;;;;;1873745;76;21004;-61
2022/09/01 11:36:18;;;;;;;12.15;8.23;;;33.30;55.00;;;;;;1873809;76;21068;-64
2022/09/01 11:39:06;;;;;;;10.00;8.20;;;33.30;54.90;;;;;;1853777;76;21064;-63
2022/09/01 11:41:41;;;;;;;16.80;8.08;;;33.30;54.60;;;;;;1873851;76;21123;-61
2022/09/01 11:44:34;;;;;;;12.93;7.90;;;33.20;54.50;;;;;;1874028;76;21111;-61
2022/09/01 11:47:06;;;;;;;13.48;8.15;;;33.20;55.10;;;;;;1873722;76;21036;-62
2022/09/01 11:49:38;;;;;;;16.62;8.58;;;33.20;55.50;;;;;;1874060;76;21053;-60
2022/09/01 11:52:10;;;;;;;11.22;8.33;;;33.20;55.40;;;;;;1873965;76;21149;-60
2022/09/01 11:54:42;;;;;;;17.05;8.60;;;33.20;54.90;;;;;;1873170;76;21072;-63
2022/09/01 11:57:28;;;;;;;16.97;8.85;;;33.30;54.80;;;;;;1873752;76;21098;-66
2022/09/01 12:00:00;;;;;;;13.45;7.90;;;33.30;54.70;;;;;;1873845;76;21499;-61
2022/09/01 12:02:33;;;;;;;13.85;7.95;;;33.30;54.90;;;;;;1873701;76;21267;-62
2022/09/01 12:05:04;;;;;;;12.90;8.60;;;33.30;54.90;;;;;;1873897;76;21165;-67
2022/09/01 12:07:42;;;;;;;13.35;7.22;;;33.40;55.00;;;;;;1873935;76;21138;-61
2022/09/01 12:10:16;;;;;;;10.45;6.83;;;33.40;55.00;;;;;;1873655;76;21036;-62
2022/09/01 12:12:46;;;;;;;11.40;7.17;;;33.50;53.80;;;;;;1873892;76;21515;-60
2022/09/01 12:15:35;;;;;;;12.95;6.25;;;33.30;53.20;;;;;;1873868;76;21147;-62
2022/09/01 12:18:18;;;;;;;10.53;7.05;;;33.10;52.80;;;;;;1872693;76;21025;-65
2022/09/01 12:20:49;;;;;;;9.75;6.22;;;32.90;52.90;;;;;;1873931;76;21094;-64
2022/09/01 12:23:20;;;;;;;11.73;7.28;;;32.80;53.30;;;;;;1873703;76;21119;-68
2022/09/01 12:25:51;;;;;;;26.95;11.40;;;32.70;53.30;;;;;;1873880;76;21076;-71
2022/09/01 12:28:20;;;;;;;27.65;9.30;;;32.50;52.70;;;;;;1873884;76;21110;-67
2022/09/01 12:30:50;;;;;;;19.98;7.97;;;32.50;52.60;;;;;;1874162;76;21108;-69
2022/09/01 12:33:20;;;;;;;18.92;8.60;;;32.40;52.90;;;;;;1874662;76;21040;-72
2022/09/01 12:35:49;;;;;;;23.18;9.43;;;32.20;53.80;;;;;;1874580;76;21044;-72
2022/09/01 12:38:23;;;;;;;20.85;10.60;;;32.20;54.80;;;;;;1862635;75;21086;-73
2022/09/01 12:40:55;;;;;;;34.45;11.55;;;32.10;55.80;;;;;;1859937;77;21078;-73
2022/09/01 12:43:33;;;;;;;22.17;11.12;;;31.90;56.40;;;;;;1858597;77;21054;-73
2022/09/01 12:46:03;;;;;;;21.55;10.98;;;31.70;57.70;;;;;;1860049;77;21573;-72
2022/09/01 12:48:38;;;;;;;26.40;15.40;;;31.50;58.80;;;;;;1860190;77;21051;-73
2022/09/01 12:51:24;;;;;;;22.95;15.10;;;31.30;59.10;;;;;;1860038;77;21050;-72
2022/09/01 12:53:55;;;;;;;18.95;12.07;;;31.20;59.80;;;;;;1860023;77;21046;-73
2022/09/01 12:56:37;;;;;;;18.17;10.75;;;31.10;60.30;;;;;;1859903;77;21086;-72
2022/09/01 12:59:15;;;;;;;48.73;27.02;;;31.00;60.80;;;;;;1860000;77;21022;-73
2022/09/01 13:01:44;;;;;;;30.17;17.37;;;31.00;61.20;;;;;;1859816;77;21054;-72
2022/09/01 13:04:16;;;;;;;19.40;11.03;;;31.10;61.40;;;;;;1859942;77;21046;-72
2022/09/01 13:06:45;;;;;;;17.87;12.03;;;31.10;61.10;;;;;;1858928;77;21019;-71
2022/09/01 13:09:15;;;;;;;16.48;10.95;;;31.20;60.90;;;;;;1859886;77;21046;-72
2022/09/01 13:11:50;;;;;;;12.35;10.85;;;31.30;61.00;;;;;;1859825;77;21051;-72